Time;durP1;ratioP1;P1;durP2;ratioP2;P2;SDS_P1;SDS_P2;PMS_P1;PMS_P2;Temp;Humidity;BMP_temperature;BMP_pressure;BME280_temperature;BME280_humidity;BME280_pressure;Samples;Min_cycle;Max_cycle;Signal;HPM_P1;HPM_P2
2023/01/11 00:00:01;;;;;;;12.27;3.87;;;;;2.70;96535.00;;;;8262672;28;20631;-71
2023/01/11 00:04:04;;;;;;;8.43;4.77;;;;;2.80;96539.00;;;;8138440;28;3566254;-70
2023/01/11 00:08:11;;;;;;;8.03;3.50;;;;;2.80;96541.00;;;;8262994;28;20591;-70
2023/01/11 00:12:47;;;;;;;13.87;3.83;;;;;2.80;96544.00;;;;8262482;28;20245;-70
2023/01/11 00:16:53;;;;;;;8.27;3.90;;;;;2.80;96541.00;;;;8263421;28;20494;-70
2023/01/11 00:20:56;;;;;;;8.93;4.00;;;;;2.90;96528.00;;;;8262763;28;20272;-71
2023/01/11 00:25:01;;;;;;;10.90;3.77;;;;;2.90;96529.00;;;;8262057;28;20207;-70
2023/01/11 00:29:11;;;;;;;9.93;3.80;;;;;2.90;96532.00;;;;8262253;28;20278;-70
2023/01/11 00:33:15;;;;;;;10.77;3.80;;;;;2.80;96516.00;;;;8262185;28;20540;-70
2023/01/11 00:37:18;;;;;;;7.80;3.63;;;;;2.80;96510.00;;;;8262539;28;20221;-70
2023/01/11 00:50:06;;;;;;;7.60;3.20;;;;;2.90;96509.00;;;;8261945;28;20193;-70
2023/01/11 00:54:12;;;;;;;8.73;3.37;;;;;3.00;96508.00;;;;8262110;28;20213;-70
2023/01/11 00:58:18;;;;;;;8.33;3.10;;;;;3.00;96508.00;;;;8261722;28;20644;-70
2023/01/11 01:02:25;;;;;;;6.03;3.37;;;;;3.00;96506.00;;;;8264954;28;20229;-70
2023/01/11 01:06:28;;;;;;;6.43;3.20;;;;;3.10;96493.00;;;;8269126;28;20209;-70
2023/01/11 01:10:32;;;;;;;9.17;3.50;;;;;3.10;96501.00;;;;8267744;28;20203;-69
2023/01/11 01:14:38;;;;;;;7.87;3.73;;;;;3.00;96504.00;;;;8268851;28;20506;-69
2023/01/11 01:18:43;;;;;;;13.60;4.77;;;;;3.10;96485.00;;;;8267404;28;20261;-69
2023/01/11 01:22:52;;;;;;;8.67;3.40;;;;;3.10;96491.00;;;;8268495;28;20214;-69
2023/01/11 01:27:04;;;;;;;12.97;3.50;;;;;3.10;96486.00;;;;8267437;28;20245;-69
2023/01/11 01:31:07;;;;;;;6.60;3.40;;;;;3.00;96484.00;;;;8267469;28;20194;-69
2023/01/11 01:35:14;;;;;;;5.60;3.37;;;;;3.00;96480.00;;;;8269205;28;20229;-69
2023/01/11 01:39:19;;;;;;;7.80;3.90;;;;;3.00;96472.00;;;;8272076;28;20202;-69
2023/01/11 01:43:51;;;;;;;13.60;3.60;;;;;3.00;96470.00;;;;8272010;28;20222;-69
2023/01/11 01:48:01;;;;;;;9.63;3.50;;;;;2.90;96471.00;;;;8272402;28;20210;-69
2023/01/11 01:52:09;;;;;;;9.33;3.63;;;;;2.90;96479.00;;;;8271440;28;20209;-70
2023/01/11 01:56:43;;;;;;;13.73;3.67;;;;;3.00;96476.00;;;;8271935;28;20200;-70
2023/01/11 02:00:46;;;;;;;10.73;3.53;;;;;3.00;96472.00;;;;8267605;28;20209;-70
2023/01/11 02:04:49;;;;;;;8.90;4.30;;;;;3.10;96458.00;;;;8271329;28;20236;-70
2023/01/11 02:09:00;;;;;;;8.23;3.50;;;;;3.20;96466.00;;;;8271217;28;20206;-70
2023/01/11 02:13:11;;;;;;;6.03;3.63;;;;;3.30;96464.00;;;;8271970;28;20620;-70
2023/01/11 02:17:14;;;;;;;9.30;3.87;;;;;3.30;96452.00;;;;8270998;28;20536;-70
2023/01/11 02:21:25;;;;;;;8.13;3.57;;;;;3.30;96449.00;;;;8268355;28;20198;-70
2023/01/11 02:26:05;;;;;;;6.00;3.43;;;;;3.30;96445.00;;;;8269510;28;20190;-70
2023/01/11 02:30:25;;;;;;;5.43;3.20;;;;;3.20;96444.00;;;;8270847;28;20202;-70
2023/01/11 02:34:37;;;;;;;8.47;3.43;;;;;3.20;96449.00;;;;8271688;28;20506;-70
2023/01/11 02:38:46;;;;;;;5.50;3.10;;;;;3.20;96438.00;;;;8269829;28;20201;-70
2023/01/11 02:47:24;;;;;;;10.40;3.57;;;;;3.10;96431.00;;;;8269573;28;20202;-70
2023/01/11 02:51:34;;;;;;;8.27;3.47;;;;;3.10;96438.00;;;;8270006;28;20205;-70
2023/01/11 02:56:04;;;;;;;4.50;3.10;;;;;3.10;96438.00;;;;8270557;28;20548;-70
2023/01/11 03:00:10;;;;;;;8.93;3.40;;;;;3.10;96430.00;;;;8269969;28;20233;-70
2023/01/11 03:04:27;;;;;;;14.50;3.37;;;;;3.10;96420.00;;;;8272368;23;20234;-71
2023/01/11 03:08:56;;;;;;;6.43;3.80;;;;;3.10;96421.00;;;;8250942;28;20223;-71
2023/01/11 03:13:08;;;;;;;7.63;3.10;;;;;3.10;96415.00;;;;8240664;28;20276;-70
2023/01/11 03:17:22;;;;;;;4.73;3.00;;;;;3.20;96425.00;;;;8255317;28;20556;-71
2023/01/11 03:21:48;;;;;;;9.53;3.40;;;;;3.20;96418.00;;;;8253069;28;20276;-71
2023/01/11 03:26:05;;;;;;;6.20;3.17;;;;;3.20;96413.00;;;;8249538;28;20212;-69
2023/01/11 03:30:19;;;;;;;5.90;3.67;;;;;3.20;96409.00;;;;8251742;28;20733;-73
2023/01/11 03:34:34;;;;;;;7.10;3.40;;;;;3.20;96407.00;;;;8248316;28;20196;-71
2023/01/11 03:38:48;;;;;;;8.77;4.03;;;;;3.20;96396.00;;;;8247848;28;20272;-70
2023/01/11 03:43:13;;;;;;;5.83;3.70;;;;;3.10;96386.00;;;;8249822;28;20272;-71
2023/01/11 03:47:24;;;;;;;8.27;3.73;;;;;3.20;96380.00;;;;8246052;28;20316;-71
2023/01/11 03:51:34;;;;;;;10.97;4.10;;;;;3.20;96384.00;;;;8246539;28;20205;-72
2023/01/11 03:55:42;;;;;;;10.60;4.03;;;;;3.30;96375.00;;;;8246598;28;20662;-71
2023/01/11 03:59:45;;;;;;;11.93;3.93;;;;;3.30;96382.00;;;;8247130;28;20261;-72
2023/01/11 04:03:48;;;;;;;8.13;4.03;;;;;3.30;96378.00;;;;8249186;28;20231;-70
2023/01/11 04:07:52;;;;;;;5.57;4.10;;;;;3.30;96370.00;;;;8245811;28;20198;-71
2023/01/11 04:11:56;;;;;;;9.00;4.87;;;;;3.40;96369.00;;;;8249181;28;20263;-72
2023/01/11 04:16:02;;;;;;;14.00;4.77;;;;;3.40;96375.00;;;;8247347;28;20615;-69
2023/01/11 04:20:08;;;;;;;13.60;4.90;;;;;3.50;96373.00;;;;8248046;28;20283;-69
2023/01/11 04:24:12;;;;;;;12.23;5.00;;;;;3.50;96363.00;;;;8248243;28;20281;-70
2023/01/11 04:28:17;;;;;;;11.30;4.70;;;;;3.50;96362.00;;;;8240780;28;20248;-70
2023/01/11 04:32:21;;;;;;;10.40;4.90;;;;;3.60;96364.00;;;;8234013;28;20201;-70
2023/01/11 04:36:25;;;;;;;5.80;4.13;;;;;3.60;96354.00;;;;8247776;28;20190;-69
2023/01/11 04:40:29;;;;;;;7.67;5.30;;;;;3.60;96356.00;;;;8242853;28;20201;-70
2023/01/11 04:44:34;;;;;;;9.87;6.63;;;;;3.70;96368.00;;;;8245914;28;20699;-70
2023/01/11 04:48:39;;;;;;;11.13;5.47;;;;;3.70;96356.00;;;;8240684;28;20203;-70
2023/01/11 04:52:44;;;;;;;12.80;5.37;;;;;3.70;96352.00;;;;8240071;28;20293;-69
2023/01/11 04:56:50;;;;;;;10.43;5.47;;;;;3.70;96343.00;;;;8246022;28;20206;-70
2023/01/11 05:00:56;;;;;;;12.10;5.33;;;;;3.70;96346.00;;;;8243913;28;20205;-71
2023/01/11 05:05:02;;;;;;;8.53;5.47;;;;;3.70;96347.00;;;;8243534;28;20237;-70
2023/01/11 05:09:06;;;;;;;10.00;5.30;;;;;3.70;96342.00;;;;8235756;28;20692;-70
2023/01/11 05:13:12;;;;;;;14.13;5.00;;;;;3.70;96343.00;;;;8237571;28;20204;-70
2023/01/11 05:17:22;;;;;;;10.03;5.10;;;;;3.70;96337.00;;;;8241694;28;20916;-70
2023/01/11 05:21:28;;;;;;;8.73;5.10;;;;;3.70;96348.00;;;;8240881;28;20232;-70
2023/01/11 05:25:31;;;;;;;8.50;5.33;;;;;3.60;96341.00;;;;8245313;28;20636;-70
2023/01/11 05:29:34;;;;;;;9.60;5.37;;;;;3.70;96352.00;;;;8244426;28;20202;-71
2023/01/11 05:33:39;;;;;;;9.07;5.30;;;;;3.70;96353.00;;;;8245873;28;20206;-70
2023/01/11 05:37:42;;;;;;;10.13;5.80;;;;;3.70;96350.00;;;;8244424;28;20241;-70
2023/01/11 05:41:46;;;;;;;11.30;4.87;;;;;3.70;96341.00;;;;8242602;28;20206;-69
2023/01/11 05:45:50;;;;;;;9.60;6.10;;;;;3.70;96342.00;;;;8246532;28;20237;-70
2023/01/11 05:49:54;;;;;;;9.87;6.27;;;;;3.80;96341.00;;;;8251198;28;20642;-71
2023/01/11 05:53:57;;;;;;;10.50;4.80;;;;;3.80;96338.00;;;;8250756;28;20201;-70
2023/01/11 05:58:00;;;;;;;11.10;5.07;;;;;3.80;96335.00;;;;8250346;28;20293;-70
2023/01/11 06:02:04;;;;;;;9.20;5.43;;;;;3.90;96345.00;;;;8250909;28;20226;-71
2023/01/11 06:06:12;;;;;;;11.13;5.40;;;;;4.00;96339.00;;;;8253701;28;20655;-71
2023/01/11 06:10:15;;;;;;;6.60;4.73;;;;;4.00;96334.00;;;;8251373;28;20210;-70
2023/01/11 06:14:18;;;;;;;7.07;4.47;;;;;4.00;96329.00;;;;8253833;28;20203;-71
2023/01/11 06:18:22;;;;;;;11.97;5.20;;;;;4.00;96329.00;;;;8248481;28;20205;-71
2023/01/11 06:22:27;;;;;;;11.40;5.83;;;;;4.10;96321.00;;;;8246720;28;20228;-70
2023/01/11 06:26:31;;;;;;;12.13;7.77;;;;;4.00;96313.00;;;;8250588;28;20238;-69
2023/01/11 06:30:34;;;;;;;11.90;5.47;;;;;4.00;96300.00;;;;8227963;28;20202;-70
2023/01/11 06:34:40;;;;;;;11.20;5.50;;;;;4.00;96299.00;;;;8249829;28;20267;-70
2023/01/11 06:38:44;;;;;;;12.53;5.00;;;;;4.00;96297.00;;;;8245466;28;20268;-70
2023/01/11 06:42:47;;;;;;;6.93;4.90;;;;;4.10;96302.00;;;;8247511;28;20635;-71
2023/01/11 06:46:57;;;;;;;9.10;5.00;;;;;4.10;96301.00;;;;8245193;28;20680;-71
2023/01/11 06:51:02;;;;;;;11.73;5.30;;;;;4.10;96297.00;;;;8246149;28;20266;-70
2023/01/11 06:55:08;;;;;;;9.73;5.70;;;;;4.20;96292.00;;;;8245957;28;20840;-71
2023/01/11 06:59:11;;;;;;;6.53;4.97;;;;;4.30;96305.00;;;;8243913;28;20209;-70
2023/01/11 07:03:15;;;;;;;9.13;5.43;;;;;4.30;96300.00;;;;8258364;28;20232;-71
2023/01/11 07:07:18;;;;;;;11.10;5.70;;;;;4.30;96294.00;;;;8237321;28;20203;-72
2023/01/11 07:11:22;;;;;;;10.83;5.87;;;;;4.40;96302.00;;;;8237734;28;20576;-72
2023/01/11 07:15:33;;;;;;;10.57;6.37;;;;;4.40;96314.00;;;;8234294;28;20199;-71
2023/01/11 07:19:39;;;;;;;20.10;7.63;;;;;4.40;96307.00;;;;8246105;28;20206;-71
2023/01/11 07:23:42;;;;;;;19.00;7.73;;;;;4.40;96306.00;;;;8244470;28;20259;-71
2023/01/11 07:27:46;;;;;;;12.63;7.60;;;;;4.30;96305.00;;;;8246966;28;20210;-72
2023/01/11 07:31:49;;;;;;;12.57;7.87;;;;;4.30;96307.00;;;;8247772;28;20191;-71
2023/01/11 07:36:28;;;;;;;14.00;8.43;;;;;4.30;96302.00;;;;8242938;28;20210;-71
2023/01/11 07:40:35;;;;;;;14.33;8.20;;;;;4.30;96292.00;;;;8262925;28;20640;-72
2023/01/11 07:44:39;;;;;;;15.30;8.03;;;;;4.40;96305.00;;;;8264495;28;20279;-72
2023/01/11 07:48:45;;;;;;;17.30;9.00;;;;;4.50;96307.00;;;;8264884;28;20206;-72
2023/01/11 07:52:50;;;;;;;15.27;9.00;;;;;4.40;96307.00;;;;8268534;28;20647;-72
2023/01/11 07:56:56;;;;;;;14.53;7.97;;;;;4.40;96324.00;;;;8267763;28;20521;-72
2023/01/11 08:01:00;;;;;;;23.13;8.90;;;;;4.40;96307.00;;;;8264738;28;20305;-71
2023/01/11 08:05:07;;;;;;;16.80;8.87;;;;;4.50;96302.00;;;;8263159;28;20253;-71
2023/01/11 08:09:10;;;;;;;13.00;7.83;;;;;4.50;96314.00;;;;8262991;28;20206;-71
2023/01/11 08:17:37;;;;;;;16.73;8.40;;;;;4.60;96305.00;;;;8262408;28;20202;-72
2023/01/11 08:21:43;;;;;;;16.30;9.47;;;;;4.70;96313.00;;;;8263009;28;20198;-71
2023/01/11 08:25:46;;;;;;;17.00;9.20;;;;;4.70;96306.00;;;;8262399;28;20226;-71
2023/01/11 08:30:23;;;;;;;17.53;9.77;;;;;4.70;96303.00;;;;8262692;28;20246;-72
2023/01/11 08:34:28;;;;;;;18.83;9.63;;;;;4.80;96297.00;;;;8261332;28;20256;-72
2023/01/11 08:38:31;;;;;;;17.90;9.80;;;;;4.80;96291.00;;;;8262623;28;20580;-72
2023/01/11 08:42:34;;;;;;;80.50;15.50;;;;;4.80;96287.00;;;;8261721;28;20202;-72
2023/01/11 08:47:17;;;;;;;16.97;9.07;;;;;4.80;96276.00;;;;8262157;28;20296;-72
2023/01/11 08:51:22;;;;;;;16.43;9.17;;;;;4.90;96278.00;;;;8260264;28;20697;-72
2023/01/11 08:55:29;;;;;;;19.70;10.10;;;;;4.90;96285.00;;;;8261762;28;20230;-70
2023/01/11 08:59:35;;;;;;;23.30;12.43;;;;;5.00;96279.00;;;;8260205;28;20301;-70
2023/01/11 09:08:44;;;;;;;14.07;8.50;;;;;5.10;96276.00;;;;8261780;28;20285;-69
2023/01/11 09:13:15;;;;;;;17.83;9.60;;;;;5.10;96280.00;;;;8261218;28;20195;-69
2023/01/11 09:17:18;;;;;;;14.53;8.83;;;;;5.20;96278.00;;;;8262382;28;20631;-69
2023/01/11 09:21:31;;;;;;;15.90;8.80;;;;;5.40;96272.00;;;;8261120;28;20252;-69
2023/01/11 09:25:37;;;;;;;14.07;8.50;;;;;5.60;96278.00;;;;8267261;28;20222;-69
2023/01/11 09:29:41;;;;;;;20.10;10.37;;;;;5.70;96278.00;;;;8264959;28;20620;-69
2023/01/11 09:33:50;;;;;;;17.40;8.97;;;;;5.90;96289.00;;;;8265023;28;20205;-69
2023/01/11 09:37:57;;;;;;;15.17;8.40;;;;;6.00;96286.00;;;;8259598;28;20650;-69
2023/01/11 09:42:30;;;;;;;13.63;8.53;;;;;6.10;96287.00;;;;8269430;28;20587;-69
2023/01/11 09:47:14;;;;;;;14.33;8.30;;;;;6.20;96280.00;;;;8268055;28;20226;-69
2023/01/11 09:51:19;;;;;;;15.37;8.87;;;;;6.30;96292.00;;;;8270471;28;20199;-68
2023/01/11 09:55:32;;;;;;;14.60;8.70;;;;;6.40;96282.00;;;;8267316;28;20198;-69
2023/01/11 09:59:45;;;;;;;14.63;9.30;;;;;6.50;96270.00;;;;8269281;28;20202;-69
2023/01/11 10:04:41;;;;;;;16.13;7.57;;;;;6.70;96263.00;;;;8266506;28;20223;-70
2023/01/11 10:08:58;;;;;;;12.97;8.10;;;;;6.80;96260.00;;;;8271239;28;20205;-70
2023/01/11 10:13:41;;;;;;;11.10;6.80;;;;;6.90;96265.00;;;;8268580;28;20203;-70
2023/01/11 10:18:25;;;;;;;12.63;6.97;;;;;6.90;96248.00;;;;8271436;28;20202;-69
2023/01/11 10:23:26;;;;;;;11.40;7.07;;;;;6.90;96246.00;;;;8271166;28;20194;-70
2023/01/11 10:27:35;;;;;;;9.43;6.57;;;;;7.00;96243.00;;;;8270376;28;20276;-69
2023/01/11 10:32:05;;;;;;;11.10;6.60;;;;;7.10;96233.00;;;;8270045;28;20586;-69
2023/01/11 10:36:38;;;;;;;11.97;6.80;;;;;7.20;96234.00;;;;8268502;28;20222;-69
2023/01/11 10:41:05;;;;;;;9.97;6.73;;;;;7.30;96221.00;;;;8270511;28;20199;-69
2023/01/11 10:45:17;;;;;;;9.97;6.50;;;;;7.40;96219.00;;;;8269350;28;20230;-69
2023/01/11 10:49:48;;;;;;;11.87;7.20;;;;;7.40;96217.00;;;;8270567;28;20519;-69
2023/01/11 10:54:01;;;;;;;11.03;7.07;;;;;7.60;96212.00;;;;8265864;28;20194;-69
2023/01/11 10:58:14;;;;;;;12.03;7.10;;;;;7.50;96202.00;;;;8265391;28;20269;-69
2023/01/11 11:07:18;;;;;;;11.55;6.80;;;;;7.50;96192.00;;;;8265286;28;20567;-69
2023/01/11 11:11:31;;;;;;;9.83;6.70;;;;;7.50;96195.00;;;;8265083;28;20238;-69
2023/01/11 11:15:39;;;;;;;11.87;6.87;;;;;7.60;96175.00;;;;8264884;28;20195;-69
2023/01/11 11:19:42;;;;;;;10.17;6.97;;;;;7.70;96166.00;;;;8264852;28;20595;-69
2023/01/11 11:23:47;;;;;;;9.87;7.17;;;;;7.80;96161.00;;;;8264514;28;20199;-69
2023/01/11 11:28:00;;;;;;;8.20;6.80;;;;;8.00;96144.00;;;;8264023;28;20273;-69
2023/01/11 11:32:03;;;;;;;11.47;6.90;;;;;8.20;96150.00;;;;8264052;28;20748;-69
2023/01/11 11:36:37;;;;;;;7.47;6.30;;;;;8.20;96146.00;;;;8264381;28;20213;-69
2023/01/11 11:40:43;;;;;;;10.57;7.00;;;;;8.20;96131.00;;;;8263665;28;20637;-69
2023/01/11 11:45:17;;;;;;;10.43;6.70;;;;;8.30;96128.00;;;;8260326;28;20213;-69
2023/01/11 11:49:20;;;;;;;9.87;7.23;;;;;8.30;96124.00;;;;8260388;28;20199;-69
2023/01/11 11:53:30;;;;;;;10.80;6.73;;;;;8.30;96113.00;;;;8261142;28;20198;-69
2023/01/11 11:57:47;;;;;;;10.80;6.90;;;;;8.20;96122.00;;;;8263364;28;20226;-69
2023/01/11 12:01:59;;;;;;;9.40;6.90;;;;;8.20;96131.00;;;;8263060;28;20223;-69
2023/01/11 12:06:06;;;;;;;12.83;7.77;;;;;8.20;96122.00;;;;8260111;28;20230;-69
2023/01/11 12:10:16;;;;;;;8.93;7.03;;;;;8.20;96122.00;;;;8259533;28;20484;-69
2023/01/11 12:14:23;;;;;;;9.87;6.83;;;;;8.20;96125.00;;;;8263051;28;20286;-69
2023/01/11 12:18:32;;;;;;;8.97;6.90;;;;;8.30;96109.00;;;;8261565;28;20187;-69
2023/01/11 12:23:11;;;;;;;12.53;7.50;;;;;8.30;96109.00;;;;8257237;28;20226;-69
2023/01/11 12:27:35;;;;;;;12.00;7.40;;;;;8.20;96108.00;;;;8262314;28;20226;-69
2023/01/11 12:31:53;;;;;;;14.60;7.53;;;;;8.00;96104.00;;;;8261075;28;20206;-69
2023/01/11 12:36:06;;;;;;;15.17;7.87;;;;;8.00;96100.00;;;;8260843;28;20303;-70
2023/01/11 12:40:36;;;;;;;11.43;7.87;;;;;7.90;96097.00;;;;8255633;28;20382;-69
2023/01/11 12:44:53;;;;;;;11.97;7.83;;;;;7.70;96102.00;;;;8257861;28;20261;-69
2023/01/11 12:49:32;;;;;;;18.27;8.67;;;;;7.50;96099.00;;;;8261687;28;20251;-69
2023/01/11 12:53:56;;;;;;;11.43;8.07;;;;;7.40;96094.00;;;;8261276;28;20207;-68
2023/01/11 12:58:07;;;;;;;15.97;7.57;;;;;7.40;96093.00;;;;8266684;28;20195;-68
2023/01/11 13:02:30;;;;;;;14.17;8.60;;;;;7.40;96083.00;;;;8265967;28;20223;-69
2023/01/11 13:06:40;;;;;;;14.60;8.43;;;;;7.40;96081.00;;;;8267268;28;20265;-68
2023/01/11 13:10:57;;;;;;;13.43;8.43;;;;;7.50;96071.00;;;;8266778;28;20197;-69
2023/01/11 13:15:23;;;;;;;14.13;8.50;;;;;7.60;96074.00;;;;8266393;28;20766;-69
2023/01/11 13:19:36;;;;;;;15.50;9.50;;;;;7.70;96075.00;;;;8267180;28;20195;-69
2023/01/11 13:23:43;;;;;;;19.73;9.17;;;;;7.60;96076.00;;;;8265777;28;20529;-69
2023/01/11 13:27:51;;;;;;;27.03;9.40;;;;;7.70;96076.00;;;;8262298;28;20533;-68
2023/01/11 13:32:04;;;;;;;19.40;7.97;;;;;7.60;96077.00;;;;8262864;28;20183;-68
2023/01/11 13:36:13;;;;;;;13.90;8.47;;;;;7.60;96075.00;;;;8263822;28;20186;-68
2023/01/11 13:40:28;;;;;;;13.75;8.77;;;;;7.50;96074.00;;;;8269662;28;20609;-68
2023/01/11 13:44:41;;;;;;;19.90;8.57;;;;;7.50;96071.00;;;;8268537;28;20595;-68
2023/01/11 13:48:52;;;;;;;11.97;8.43;;;;;7.40;96074.00;;;;8265489;28;20226;-68
2023/01/11 13:53:28;;;;;;;14.43;8.97;;;;;7.20;96075.00;;;;8270862;28;20451;-68
2023/01/11 13:57:40;;;;;;;14.83;8.77;;;;;7.10;96075.00;;;;8271816;28;20211;-68
2023/01/11 14:01:52;;;;;;;71.90;11.90;;;;;7.10;96078.00;;;;8268249;28;20226;-68
2023/01/11 14:06:17;;;;;;;17.20;7.87;;;;;7.10;96076.00;;;;8269383;28;20227;-68
2023/01/11 14:10:34;;;;;;;18.33;9.43;;;;;7.00;96077.00;;;;8265991;28;20190;-68
2023/01/11 14:14:59;;;;;;;19.73;10.00;;;;;7.00;96077.00;;;;8267253;28;20253;-68
2023/01/11 14:19:32;;;;;;;17.97;9.70;;;;;7.10;96075.00;;;;8270985;28;20702;-68
2023/01/11 14:23:45;;;;;;;19.63;9.40;;;;;7.10;96073.00;;;;8267455;28;20199;-68
2023/01/11 14:28:23;;;;;;;14.57;8.93;;;;;7.10;96079.00;;;;8265051;28;20285;-68
2023/01/11 14:33:10;;;;;;;19.77;10.97;;;;;7.10;96087.00;;;;8265246;28;20191;-67
2023/01/11 14:37:52;;;;;;;21.10;9.90;;;;;7.00;96085.00;;;;8269427;28;20702;-67
2023/01/11 14:42:31;;;;;;;16.20;9.17;;;;;7.10;96084.00;;;;8269885;28;20245;-69
2023/01/11 14:47:13;;;;;;;330.20;225.37;;;;;7.10;96086.00;;;;8268192;28;20227;-69
2023/01/11 14:56:50;;;;;;;517.00;245.63;;;;;7.10;96093.00;;;;8132528;29;20249;-69
2023/01/11 15:01:10;;;;;;;428.47;225.77;;;;;7.20;96088.00;;;;8222858;28;20230;-68
2023/01/11 15:05:35;;;;;;;240.20;97.17;;;;;7.20;96086.00;;;;8268579;28;20597;-68
2023/01/11 15:09:43;;;;;;;36.70;17.37;;;;;7.20;96086.00;;;;8268220;28;20218;-69
2023/01/11 15:13:56;;;;;;;110.93;38.13;;;;;7.20;96081.00;;;;8269275;28;20202;-68
2023/01/11 15:18:17;;;;;;;90.93;27.77;;;;;7.30;96083.00;;;;8268846;28;20580;-68
2023/01/11 15:22:25;;;;;;;51.37;19.43;;;;;7.30;96087.00;;;;8267873;28;20199;-68
2023/01/11 15:26:29;;;;;;;33.30;15.77;;;;;7.30;96084.00;;;;8269001;28;20203;-69
2023/01/11 15:30:39;;;;;;;23.30;11.93;;;;;7.30;96083.00;;;;8268316;28;20226;-68
2023/01/11 15:34:45;;;;;;;18.93;10.80;;;;;7.40;96080.00;;;;8267738;28;20202;-69
2023/01/11 15:38:54;;;;;;;16.27;9.57;;;;;7.40;96091.00;;;;8268262;28;20245;-68
2023/01/11 15:43:48;;;;;;;14.90;8.93;;;;;7.40;96091.00;;;;8268746;28;20653;-69
2023/01/11 15:48:10;;;;;;;17.97;9.00;;;;;7.50;96096.00;;;;8254551;28;20234;-69
2023/01/11 15:52:59;;;;;;;16.83;9.10;;;;;7.50;96094.00;;;;8268797;28;20231;-69
2023/01/11 15:57:43;;;;;;;18.93;8.93;;;;;7.50;96099.00;;;;8267528;28;20198;-69
2023/01/11 16:02:09;;;;;;;16.83;8.87;;;;;7.60;96118.00;;;;8267850;28;20226;-69
2023/01/11 16:06:22;;;;;;;17.23;10.23;;;;;7.70;96117.00;;;;8235676;28;20194;-69
2023/01/11 16:10:42;;;;;;;16.83;9.03;;;;;7.70;96119.00;;;;8268445;28;20587;-69
2023/01/11 16:15:11;;;;;;;21.57;9.10;;;;;7.70;96135.00;;;;8267236;28;20187;-69
2023/01/11 16:19:22;;;;;;;19.77;9.23;;;;;7.70;96139.00;;;;8267747;28;20203;-69
2023/01/11 16:23:31;;;;;;;15.10;8.10;;;;;7.80;96150.00;;;;8267839;28;20206;-68
2023/01/11 16:27:35;;;;;;;12.73;7.03;;;;;7.90;96148.00;;;;8267835;28;20223;-69
2023/01/11 16:31:56;;;;;;;9.00;5.03;;;;;8.00;96160.00;;;;8266263;28;20290;-69
2023/01/11 16:36:05;;;;;;;6.27;4.37;;;;;8.10;96169.00;;;;8265996;28;20234;-68
2023/01/11 16:40:17;;;;;;;5.10;3.53;;;;;8.20;96159.00;;;;8267152;28;20298;-69
2023/01/11 16:44:32;;;;;;;4.27;3.43;;;;;8.30;96167.00;;;;8265555;28;20203;-69
2023/01/11 16:48:40;;;;;;;6.83;3.57;;;;;8.40;96173.00;;;;8267796;28;20664;-69
2023/01/11 16:52:51;;;;;;;7.80;3.80;;;;;8.40;96184.00;;;;8263900;28;20205;-69
2023/01/11 16:57:03;;;;;;;8.17;4.10;;;;;8.50;96195.00;;;;8267492;28;20277;-69
2023/01/11 17:01:09;;;;;;;18.17;9.27;;;;;8.50;96185.00;;;;8262204;28;20199;-68
2023/01/11 17:05:21;;;;;;;21.08;18.88;;;;;8.50;96194.00;;;;8259568;28;20556;-69
2023/01/11 17:09:28;;;;;;;17.53;10.93;;;;;8.50;96205.00;;;;8261213;28;20598;-69
2023/01/11 17:14:10;;;;;;;26.47;17.93;;;;;8.50;96207.00;;;;8264905;28;20270;-69
2023/01/11 17:18:18;;;;;;;10.03;5.63;;;;;8.50;96210.00;;;;8267454;28;20234;-69
2023/01/11 17:22:25;;;;;;;9.97;7.13;;;;;8.50;96209.00;;;;8266404;28;20218;-69
2023/01/11 17:26:34;;;;;;;14.90;11.20;;;;;8.50;96219.00;;;;8261964;28;20241;-69
2023/01/11 17:30:39;;;;;;;11.27;9.30;;;;;8.50;96219.00;;;;8261922;28;20275;-71
2023/01/11 17:34:43;;;;;;;9.23;7.47;;;;;8.60;96232.00;;;;8262364;28;20717;-71
2023/01/11 17:38:48;;;;;;;15.77;8.80;;;;;8.60;96237.00;;;;8266074;28;20277;-71
2023/01/11 17:47:17;;;;;;;15.53;11.70;;;;;8.70;96249.00;;;;8271607;28;20261;-71
2023/01/11 17:51:28;;;;;;;11.67;8.50;;;;;8.70;96260.00;;;;8271562;28;20695;-72
2023/01/11 17:55:33;;;;;;;23.70;17.57;;;;;8.70;96259.00;;;;8271792;28;20199;-72
2023/01/11 17:59:36;;;;;;;10.60;9.43;;;;;8.70;96270.00;;;;8269972;28;20202;-72
2023/01/11 18:03:52;;;;;;;11.00;9.13;;;;;8.70;96262.00;;;;8272502;28;20652;-72
2023/01/11 18:07:57;;;;;;;11.75;8.80;;;;;8.80;96255.00;;;;8270611;28;20218;-72
2023/01/11 18:12:07;;;;;;;65.57;58.73;;;;;8.80;96279.00;;;;8271143;28;20212;-72
2023/01/11 18:16:22;;;;;;;6.97;5.73;;;;;8.80;96282.00;;;;8270924;28;20257;-72
2023/01/11 18:20:38;;;;;;;3.53;3.22;;;;;8.80;96283.00;;;;8270776;28;20202;-72
2023/01/11 18:24:53;;;;;;;5.05;3.60;;;;;8.80;96291.00;;;;8270640;28;20199;-72
2023/01/11 18:28:58;;;;;;;6.20;3.73;;;;;8.80;96294.00;;;;8271454;28;20277;-73
2023/01/11 18:33:11;;;;;;;6.50;3.92;;;;;8.80;96303.00;;;;8270728;28;20264;-73
2023/01/11 18:37:21;;;;;;;4.63;3.80;;;;;8.90;96298.00;;;;8270841;28;20214;-73
2023/01/11 18:45:46;;;;;;;4.63;2.70;;;;;8.90;96310.00;;;;8270235;28;20198;-73
2023/01/11 18:49:51;;;;;;;4.53;3.03;;;;;8.90;96315.00;;;;8268071;28;20305;-73
2023/01/11 18:53:57;;;;;;;7.50;2.88;;;;;8.90;96313.00;;;;8268912;28;20195;-74
2023/01/11 18:58:00;;;;;;;3.55;2.63;;;;;8.90;96321.00;;;;8269788;28;20206;-74
2023/01/11 19:02:16;;;;;;;6.32;3.13;;;;;8.90;96329.00;;;;8269795;28;20230;-74
2023/01/11 19:06:23;;;;;;;3.87;3.10;;;;;8.90;96330.00;;;;8269382;28;20199;-73
2023/01/11 19:10:31;;;;;;;5.65;3.35;;;;;8.90;96329.00;;;;8268551;28;20222;-74
2023/01/11 19:14:35;;;;;;;4.57;3.13;;;;;8.80;96335.00;;;;8269133;28;20206;-74
2023/01/11 19:18:38;;;;;;;4.80;3.30;;;;;8.80;96344.00;;;;8268830;28;20280;-74
2023/01/11 19:22:41;;;;;;;6.07;3.17;;;;;8.80;96353.00;;;;8269171;28;20199;-74
2023/01/11 19:26:46;;;;;;;6.83;4.03;;;;;8.80;96358.00;;;;8268734;28;20578;-74
2023/01/11 19:31:05;;;;;;;7.53;3.83;;;;;8.80;96365.00;;;;8269546;28;20317;-74
2023/01/11 19:35:09;;;;;;;9.10;4.70;;;;;8.80;96372.00;;;;8268398;28;20540;-74
2023/01/11 19:39:15;;;;;;;11.63;4.80;;;;;8.70;96379.00;;;;8268472;28;20199;-72
2023/01/11 19:43:21;;;;;;;7.28;4.65;;;;;8.80;96390.00;;;;8267675;28;20540;-73
2023/01/11 19:47:24;;;;;;;9.07;4.40;;;;;8.70;96390.00;;;;8268629;28;20195;-73
2023/01/11 19:51:30;;;;;;;9.30;4.13;;;;;8.70;96398.00;;;;8268435;28;20566;-73
2023/01/11 19:55:33;;;;;;;8.70;3.90;;;;;8.70;96409.00;;;;8267636;28;20246;-72
2023/01/11 19:59:40;;;;;;;6.82;3.45;;;;;8.70;96400.00;;;;8268303;28;20198;-72
2023/01/11 20:03:49;;;;;;;5.10;3.37;;;;;8.60;96409.00;;;;8268094;28;20253;-72
2023/01/11 20:07:53;;;;;;;8.20;3.30;;;;;8.60;96407.00;;;;8266627;28;20199;-72
2023/01/11 20:11:58;;;;;;;10.77;3.50;;;;;8.40;96414.00;;;;8267332;28;20237;-72
2023/01/11 20:16:13;;;;;;;7.17;3.50;;;;;8.30;96408.00;;;;8267424;28;20270;-72
2023/01/11 20:20:20;;;;;;;7.43;3.17;;;;;8.20;96410.00;;;;8268405;28;20670;-72
2023/01/11 20:24:28;;;;;;;7.73;3.60;;;;;8.10;96410.00;;;;8268953;28;20687;-71
2023/01/11 20:28:32;;;;;;;10.57;3.60;;;;;8.10;96414.00;;;;8267156;28;20222;-72
2023/01/11 20:32:38;;;;;;;14.87;6.37;;;;;8.10;96418.00;;;;8267518;28;20195;-72
2023/01/11 20:36:50;;;;;;;7.07;4.40;;;;;8.20;96427.00;;;;8254864;28;20198;-72
2023/01/11 20:40:53;;;;;;;8.82;4.38;;;;;8.20;96427.00;;;;8258945;28;20270;-71
2023/01/11 20:44:58;;;;;;;7.63;4.27;;;;;8.20;96433.00;;;;8261351;28;20195;-72
2023/01/11 20:49:03;;;;;;;6.47;4.30;;;;;8.20;96429.00;;;;8266904;28;20222;-71
2023/01/11 20:53:13;;;;;;;14.00;4.80;;;;;8.20;96450.00;;;;8266909;28;20579;-72
2023/01/11 20:57:20;;;;;;;9.93;4.50;;;;;8.30;96438.00;;;;8266505;28;20528;-71
2023/01/11 21:01:24;;;;;;;12.70;4.20;;;;;8.30;96444.00;;;;8265761;28;20257;-72
2023/01/11 21:05:31;;;;;;;8.52;4.85;;;;;8.30;96442.00;;;;8265605;28;20225;-71
2023/01/11 21:09:34;;;;;;;7.70;4.17;;;;;8.30;96456.00;;;;8266210;28;20269;-69
2023/01/11 21:13:40;;;;;;;10.87;3.90;;;;;8.20;96450.00;;;;8265709;28;20625;-69
2023/01/11 21:17:44;;;;;;;6.83;3.30;;;;;8.30;96453.00;;;;8266505;28;20587;-69
2023/01/11 21:21:49;;;;;;;14.23;3.37;;;;;8.20;96458.00;;;;8272284;28;20230;-69
2023/01/11 21:25:52;;;;;;;11.73;4.17;;;;;8.10;96450.00;;;;8272408;28;20278;-69
2023/01/11 21:30:08;;;;;;;12.55;3.40;;;;;8.00;96464.00;;;;8273425;28;20218;-69
2023/01/11 21:34:12;;;;;;;9.23;2.93;;;;;7.90;96483.00;;;;8272080;28;20279;-69
2023/01/11 21:38:21;;;;;;;7.87;3.00;;;;;7.90;96476.00;;;;8273675;28;20195;-69
2023/01/11 21:42:24;;;;;;;11.27;3.57;;;;;8.00;96468.00;;;;8271819;28;20253;-69
2023/01/11 21:46:28;;;;;;;14.17;3.43;;;;;8.10;96489.00;;;;8271891;28;20203;-69